createdAt,value
2024-04-18T00:00:50.086Z,5.77
2024-04-18T00:01:52.734Z,5.63
2024-04-18T00:02:54.436Z,5.20
2024-04-18T00:04:08.286Z,5.37
2024-04-18T00:05:10.335Z,5.43
2024-04-18T00:06:12.259Z,5.43
2024-04-18T00:07:13.936Z,5.20
2024-04-18T00:08:15.524Z,5.00
2024-04-18T00:09:20.033Z,5.17
2024-04-18T00:10:22.567Z,5.07
2024-04-18T00:11:24.269Z,5.10
2024-04-18T00:12:25.983Z,5.53
2024-04-18T00:13:27.619Z,4.87
2024-04-18T00:14:37.872Z,5.27
2024-04-18T00:15:59.903Z,5.40
2024-04-18T00:17:10.530Z,5.40
2024-04-18T00:18:12.309Z,4.50
2024-04-18T00:19:14.783Z,5.40
2024-04-18T00:20:30.689Z,5.00
2024-04-18T00:21:52.189Z,4.77
2024-04-18T00:23:00.871Z,4.40
2024-04-18T00:24:02.866Z,5.17
2024-04-18T00:25:38.046Z,5.53
2024-04-18T00:26:57.811Z,5.63
2024-04-18T00:28:08.299Z,5.57
2024-04-18T00:29:15.549Z,5.90
2024-04-18T00:30:17.250Z,6.00
2024-04-18T00:31:26.011Z,6.40
2024-04-18T00:32:33.791Z,6.03
2024-04-18T00:33:54.012Z,6.10
2024-04-18T00:35:02.816Z,6.50
2024-04-18T00:36:13.580Z,5.90
2024-04-18T00:37:24.093Z,5.83
2024-04-18T00:38:34.972Z,5.97
2024-04-18T00:39:36.691Z,5.93
2024-04-18T00:40:38.272Z,6.27
2024-04-18T00:41:51.406Z,5.70
2024-04-18T00:43:04.297Z,5.97
2024-04-18T00:44:15.463Z,6.53
2024-04-18T00:45:17.280Z,6.27
2024-04-18T00:46:21.230Z,7.10
2024-04-18T00:47:31.567Z,6.90
2024-04-18T00:48:42.184Z,7.43
2024-04-18T00:49:43.801Z,7.20
2024-04-18T00:50:45.526Z,8.00
2024-04-18T00:51:58.262Z,8.03
2024-04-18T00:53:00.566Z,7.87
2024-04-18T00:54:03.037Z,8.23
2024-04-18T00:55:04.769Z,7.57
2024-04-18T00:56:08.873Z,8.43
2024-04-18T00:57:22.623Z,8.70
2024-04-18T00:58:25.627Z,9.20
2024-04-18T00:59:48.174Z,9.37
2024-04-18T01:00:50.962Z,9.10
2024-04-18T01:02:11.518Z,9.20
2024-04-18T01:03:13.115Z,9.53
2024-04-18T01:04:14.941Z,9.43
2024-04-18T01:05:16.730Z,9.10
2024-04-18T01:06:18.351Z,9.47
2024-04-18T01:07:46.258Z,9.27
2024-04-18T01:08:58.122Z,9.43
2024-04-18T01:10:06.268Z,9.87
2024-04-18T01:11:07.859Z,9.57
2024-04-18T01:12:09.426Z,9.80
2024-04-18T01:13:10.951Z,9.37
2024-04-18T01:14:41.173Z,9.30
2024-04-18T01:15:42.930Z,9.40
2024-04-18T01:16:44.515Z,9.93
2024-04-18T01:17:46.114Z,10.07
2024-04-18T01:18:47.793Z,9.57
2024-04-18T01:19:49.507Z,9.90
2024-04-18T01:20:51.066Z,9.97
2024-04-18T01:21:53.078Z,11.00
2024-04-18T01:22:54.742Z,9.80
2024-04-18T01:24:16.472Z,10.47
2024-04-18T01:25:18.555Z,10.30
2024-04-18T01:26:20.140Z,10.47
2024-04-18T01:27:21.710Z,10.60
2024-04-18T01:28:23.428Z,10.20
2024-04-18T01:29:33.768Z,10.07
2024-04-18T01:30:42.021Z,10.33
2024-04-18T01:31:45.314Z,10.50
2024-04-18T01:32:46.905Z,11.17
2024-04-18T01:33:48.646Z,10.20
2024-04-18T01:34:50.209Z,9.80
2024-04-18T01:35:54.633Z,10.83
2024-04-18T01:36:56.386Z,10.27
2024-04-18T01:38:04.386Z,10.20
2024-04-18T01:39:20.495Z,9.43
2024-04-18T01:40:38.267Z,10.30
2024-04-18T01:41:58.161Z,9.43
2024-04-18T01:43:16.499Z,10.07
2024-04-18T01:44:33.189Z,9.67
2024-04-18T01:45:57.449Z,9.93
2024-04-18T01:46:59.033Z,10.10
2024-04-18T01:48:06.725Z,9.33
2024-04-18T01:49:28.384Z,9.47
2024-04-18T01:50:30.077Z,8.80
2024-04-18T01:51:31.737Z,9.80
2024-04-18T01:52:33.337Z,9.17
2024-04-18T01:53:37.821Z,9.60
2024-04-18T01:54:52.326Z,10.00
2024-04-18T01:56:04.397Z,8.83
2024-04-18T01:57:21.008Z,8.70
2024-04-18T01:58:41.145Z,8.87
2024-04-18T01:59:42.713Z,8.80
2024-04-18T02:00:44.640Z,8.73
2024-04-18T02:01:46.173Z,8.87
2024-04-18T02:02:47.712Z,9.23
2024-04-18T02:04:09.331Z,8.57
2024-04-18T02:05:10.952Z,8.97
2024-04-18T02:06:18.237Z,9.43
2024-04-18T02:07:22.886Z,9.07
2024-04-18T02:08:37.265Z,8.87
2024-04-18T02:09:52.301Z,8.47
2024-04-18T02:11:03.362Z,8.20
2024-04-18T02:12:36.792Z,8.03
2024-04-18T02:13:47.558Z,7.37
2024-04-18T02:14:50.175Z,6.67
2024-04-18T02:15:51.729Z,6.50
2024-04-18T02:16:53.313Z,6.33
2024-04-18T02:17:57.411Z,5.97
2024-04-18T02:19:16.528Z,5.27
2024-04-18T02:20:35.945Z,4.70
2024-04-18T02:21:54.416Z,4.53
2024-04-18T02:23:08.047Z,3.97
2024-04-18T02:24:24.666Z,3.70
2024-04-18T02:25:26.175Z,3.40
2024-04-18T02:26:27.712Z,3.67
2024-04-18T02:27:29.274Z,3.70
2024-04-18T02:28:50.764Z,3.33
2024-04-18T02:29:52.273Z,3.37
2024-04-18T02:31:11.474Z,3.17
2024-04-18T02:32:24.685Z,3.10
2024-04-18T02:33:39.580Z,3.20
2024-04-18T02:35:01.398Z,3.17
2024-04-18T02:36:02.911Z,3.13
2024-04-18T02:37:13.955Z,3.10
2024-04-18T02:38:15.495Z,3.00
2024-04-18T02:39:17.117Z,3.40
2024-04-18T02:40:18.792Z,3.23
2024-04-18T02:41:34.382Z,4.20
2024-04-18T02:42:55.844Z,4.13
2024-04-18T02:44:06.453Z,4.40
2024-04-18T02:45:08.174Z,4.60
2024-04-18T02:46:28.201Z,4.00
2024-04-18T02:47:47.718Z,4.40
2024-04-18T02:49:09.335Z,4.43
2024-04-18T02:50:29.507Z,4.50
2024-04-18T02:51:31.280Z,4.23
2024-04-18T02:52:47.787Z,4.70
2024-04-18T02:53:49.466Z,4.50
2024-04-18T02:54:51.101Z,4.20
2024-04-18T02:55:52.616Z,3.93
2024-04-18T02:57:05.442Z,4.07
2024-04-18T02:58:08.391Z,4.07
2024-04-18T02:59:12.081Z,4.40
2024-04-18T03:00:25.408Z,4.27
2024-04-18T03:01:45.483Z,4.17
2024-04-18T03:02:47.037Z,4.17
2024-04-18T03:03:51.792Z,4.37
2024-04-18T03:05:07.527Z,4.77
2024-04-18T03:06:09.215Z,5.20
2024-04-18T03:07:14.782Z,4.83
2024-04-18T03:08:21.373Z,4.93
2024-04-18T03:09:22.915Z,5.07
2024-04-18T03:10:27.551Z,5.10
2024-04-18T03:11:34.926Z,4.90
2024-04-18T03:12:43.032Z,5.00
2024-04-18T03:13:54.819Z,5.20
2024-04-18T03:15:05.182Z,4.90
2024-04-18T03:16:15.966Z,5.30
2024-04-18T03:17:17.547Z,5.23
2024-04-18T03:18:37.257Z,5.87
2024-04-18T03:19:50.336Z,5.50
2024-04-18T03:21:01.041Z,5.47
2024-04-18T03:22:17.493Z,5.13
2024-04-18T03:23:32.586Z,4.63
2024-04-18T03:24:36.608Z,4.90
2024-04-18T03:25:38.110Z,4.57
2024-04-18T03:26:39.655Z,4.30
2024-04-18T03:27:41.148Z,4.93
2024-04-18T03:28:43.465Z,4.60
2024-04-18T03:29:44.981Z,4.40
2024-04-18T03:31:06.548Z,4.47
2024-04-18T03:32:08.015Z,4.53
2024-04-18T03:33:18.748Z,4.97
2024-04-18T03:34:20.308Z,4.90
2024-04-18T03:35:25.492Z,5.00
2024-04-18T03:36:53.248Z,5.00
2024-04-18T03:38:04.309Z,5.33
2024-04-18T03:39:09.464Z,5.53
2024-04-18T03:40:11.160Z,5.90
2024-04-18T03:41:32.682Z,5.80
2024-04-18T03:42:49.443Z,5.07
2024-04-18T03:43:50.938Z,5.37
2024-04-18T03:44:52.827Z,5.50
2024-04-18T03:46:00.745Z,5.47
2024-04-18T03:47:02.429Z,5.80
2024-04-18T03:48:09.904Z,5.40
2024-04-18T03:49:20.192Z,5.77
2024-04-18T03:50:21.767Z,6.40
2024-04-18T03:51:27.756Z,6.03
2024-04-18T03:52:58.180Z,5.60
2024-04-18T03:54:17.711Z,5.77
2024-04-18T03:55:28.385Z,6.43
2024-04-18T03:56:29.930Z,5.57
2024-04-18T03:57:31.474Z,5.70
2024-04-18T03:58:33.004Z,5.57
2024-04-18T03:59:34.570Z,6.43
2024-04-18T04:00:36.181Z,6.37
2024-04-18T04:01:38.040Z,6.70
2024-04-18T04:02:40.216Z,6.93
2024-04-18T04:03:41.942Z,6.60
2024-04-18T04:04:43.532Z,7.10
2024-04-18T04:05:45.037Z,7.40
2024-04-18T04:06:46.581Z,8.27
2024-04-18T04:07:48.132Z,8.40
2024-04-18T04:09:09.594Z,8.00
2024-04-18T04:10:11.190Z,7.70
2024-04-18T04:11:25.215Z,7.80
2024-04-18T04:12:26.783Z,9.00
2024-04-18T04:13:43.586Z,9.13
2024-04-18T04:14:54.215Z,9.50
2024-04-18T04:15:57.257Z,8.80
2024-04-18T04:17:22.973Z,10.40
2024-04-18T04:18:40.590Z,9.83
2024-04-18T04:20:00.817Z,11.17
2024-04-18T04:21:02.373Z,10.97
2024-04-18T04:22:05.730Z,12.37
2024-04-18T04:23:07.310Z,11.70
2024-04-18T04:24:28.815Z,12.50
2024-04-18T04:25:50.344Z,10.97
2024-04-18T04:26:52.172Z,11.93
2024-04-18T04:27:53.734Z,11.17
2024-04-18T04:28:55.215Z,12.70
2024-04-18T04:29:56.768Z,12.53
2024-04-18T04:30:58.329Z,11.23
2024-04-18T04:31:59.963Z,13.00
2024-04-18T04:33:01.470Z,13.20
2024-04-18T04:34:08.615Z,12.97
2024-04-18T04:35:11.847Z,12.87
2024-04-18T04:36:13.362Z,12.73
2024-04-18T04:37:14.982Z,12.33
2024-04-18T04:38:16.486Z,13.67
2024-04-18T04:39:18.043Z,13.50
2024-04-18T04:40:19.588Z,13.73
2024-04-18T04:41:22.920Z,14.07
2024-04-18T04:42:24.445Z,13.07
2024-04-18T04:43:25.942Z,13.20
2024-04-18T04:44:27.480Z,13.47
2024-04-18T04:45:29.022Z,12.47
2024-04-18T04:46:39.525Z,12.53
2024-04-18T04:47:52.022Z,11.90
2024-04-18T04:48:59.713Z,12.13
2024-04-18T04:50:01.349Z,11.93
2024-04-18T04:51:11.643Z,12.47
2024-04-18T04:52:13.157Z,12.00
2024-04-18T04:53:14.698Z,12.87
2024-04-18T04:54:34.591Z,12.60
2024-04-18T04:55:36.197Z,12.00
2024-04-18T04:56:37.866Z,11.57
2024-04-18T04:57:54.809Z,12.20
2024-04-18T04:58:56.357Z,10.90
2024-04-18T04:59:58.298Z,11.87
2024-04-18T05:01:19.844Z,11.77
2024-04-18T05:02:30.777Z,11.80
2024-04-18T05:03:32.568Z,11.53
2024-04-18T05:04:54.301Z,10.80
2024-04-18T05:06:05.829Z,10.60
2024-04-18T05:07:11.488Z,10.50
2024-04-18T05:08:16.393Z,10.40
2024-04-18T05:09:18.417Z,10.50
2024-04-18T05:10:20.430Z,10.17
2024-04-18T05:11:22.121Z,10.33
2024-04-18T05:12:23.663Z,10.20
2024-04-18T05:13:25.293Z,10.13
2024-04-18T05:14:46.856Z,9.50
2024-04-18T05:16:17.306Z,9.60
2024-04-18T05:17:38.785Z,10.80
2024-04-18T05:18:46.987Z,10.43
2024-04-18T05:19:48.605Z,10.87
2024-04-18T05:21:10.130Z,10.73
2024-04-18T05:22:31.686Z,10.43
2024-04-18T05:23:33.243Z,12.03
2024-04-18T05:24:35.565Z,11.70
2024-04-18T05:25:37.355Z,10.90
2024-04-18T05:26:54.078Z,11.03
2024-04-18T05:28:11.150Z,11.30
2024-04-18T05:29:31.565Z,11.77
2024-04-18T05:30:52.089Z,11.93
2024-04-18T05:31:53.874Z,12.20
2024-04-18T05:32:55.521Z,12.50
2024-04-18T05:33:57.284Z,12.20
2024-04-18T05:34:58.804Z,12.23
2024-04-18T05:36:00.502Z,12.37
2024-04-18T05:37:02.025Z,12.17
2024-04-18T05:38:03.866Z,12.63
2024-04-18T05:39:05.371Z,13.37
2024-04-18T05:40:07.335Z,12.43
2024-04-18T05:41:08.864Z,12.40
2024-04-18T05:42:39.752Z,11.90
2024-04-18T05:43:44.150Z,12.17
2024-04-18T05:44:45.771Z,11.50
2024-04-18T05:45:48.620Z,11.53
2024-04-18T05:46:50.137Z,12.17
2024-04-18T05:47:51.619Z,11.33
2024-04-18T05:48:54.711Z,12.00
2024-04-18T05:49:57.882Z,11.60
2024-04-18T05:51:00.447Z,11.83
2024-04-18T05:52:02.050Z,11.37
2024-04-18T05:53:03.869Z,11.10
2024-04-18T05:54:25.805Z,10.87
2024-04-18T05:55:39.289Z,10.93
2024-04-18T05:56:44.770Z,11.20
2024-04-18T05:57:46.277Z,10.97
2024-04-18T05:59:06.512Z,11.93
2024-04-18T06:00:08.644Z,11.07
2024-04-18T06:01:13.874Z,11.27
2024-04-18T06:02:15.581Z,11.17
2024-04-18T06:03:20.784Z,10.80
2024-04-18T06:04:22.452Z,11.27
2024-04-18T06:05:43.965Z,11.07
2024-04-18T06:06:48.081Z,11.03
2024-04-18T06:07:55.624Z,11.10
2024-04-18T06:08:58.842Z,11.33
2024-04-18T06:10:01.760Z,12.17
2024-04-18T06:11:03.400Z,10.80
2024-04-18T06:12:05.332Z,10.90
2024-04-18T06:13:10.472Z,11.80
2024-04-18T06:14:12.302Z,11.20
2024-04-18T06:15:14.405Z,11.93
2024-04-18T06:16:16.597Z,11.70
2024-04-18T06:17:24.386Z,11.40
2024-04-18T06:18:28.626Z,11.10
2024-04-18T06:19:30.337Z,11.93
2024-04-18T06:20:32.092Z,11.73
2024-04-18T06:21:34.269Z,11.47
2024-04-18T06:22:38.772Z,12.10
2024-04-18T06:23:58.517Z,12.07
2024-04-18T06:25:00.303Z,11.40
2024-04-18T06:26:01.933Z,11.10
2024-04-18T06:27:06.493Z,10.87
2024-04-18T06:28:12.871Z,11.23
2024-04-18T06:29:14.420Z,11.00
2024-04-18T06:30:15.970Z,11.13
2024-04-18T06:31:18.180Z,11.20
2024-04-18T06:32:19.732Z,10.70
2024-04-18T06:33:21.468Z,10.97
2024-04-18T06:34:24.563Z,10.83
2024-04-18T06:35:26.076Z,10.77
2024-04-18T06:36:27.600Z,11.83
2024-04-18T06:37:29.146Z,11.87
2024-04-18T06:38:30.666Z,10.70
2024-04-18T06:39:32.435Z,11.67
2024-04-18T06:40:34.439Z,11.90
2024-04-18T06:41:37.330Z,12.57
2024-04-18T06:42:38.875Z,12.83
2024-04-18T06:43:40.365Z,13.20
2024-04-18T06:44:41.897Z,14.77
2024-04-18T06:45:44.348Z,14.10
2024-04-18T06:46:53.007Z,14.03
2024-04-18T06:48:01.855Z,15.70
2024-04-18T06:49:03.437Z,14.57
2024-04-18T06:50:06.015Z,13.73
2024-04-18T06:51:07.525Z,13.57
2024-04-18T06:52:09.076Z,13.60
2024-04-18T06:53:10.603Z,14.17
2024-04-18T06:54:14.175Z,13.40
2024-04-18T06:55:15.750Z,12.17
2024-04-18T06:56:19.498Z,13.07
2024-04-18T06:57:21.116Z,12.67
2024-04-18T06:58:23.055Z,12.40
2024-04-18T06:59:33.375Z,12.40
2024-04-18T07:00:40.322Z,11.67
2024-04-18T07:01:45.576Z,12.47
2024-04-18T07:02:47.136Z,12.00
2024-04-18T07:04:07.155Z,11.67
2024-04-18T07:05:09.420Z,11.83
2024-04-18T07:06:20.712Z,11.10
2024-04-18T07:07:36.677Z,11.90
2024-04-18T07:09:01.343Z,11.40
2024-04-18T07:10:19.184Z,12.33
2024-04-18T07:11:28.493Z,11.53
2024-04-18T07:12:30.271Z,10.43
2024-04-18T07:13:53.888Z,10.60
2024-04-18T07:15:04.328Z,10.83
2024-04-18T07:16:17.873Z,10.40
2024-04-18T07:17:28.633Z,10.90
2024-04-18T07:18:38.473Z,10.83
2024-04-18T07:19:40.058Z,11.50
2024-04-18T07:20:41.557Z,11.73
2024-04-18T07:21:43.348Z,11.50
2024-04-18T07:22:50.918Z,11.33
2024-04-18T07:24:03.626Z,11.43
2024-04-18T07:25:16.896Z,11.60
2024-04-18T07:26:18.674Z,13.10
2024-04-18T07:27:20.599Z,12.20
2024-04-18T07:28:22.216Z,12.97
2024-04-18T07:29:23.703Z,12.87
2024-04-18T07:30:25.310Z,12.93
2024-04-18T07:31:26.825Z,12.33
2024-04-18T07:32:47.016Z,11.90
2024-04-18T07:33:49.333Z,11.73
2024-04-18T07:34:50.900Z,11.40
2024-04-18T07:36:00.689Z,11.50
2024-04-18T07:37:02.388Z,11.43
2024-04-18T07:38:04.042Z,11.80
2024-04-18T07:39:05.567Z,10.83
2024-04-18T07:40:13.770Z,11.13
2024-04-18T07:41:15.445Z,10.50
2024-04-18T07:42:17.752Z,10.53
2024-04-18T07:43:19.356Z,10.70
2024-04-18T07:44:24.203Z,9.83
2024-04-18T07:45:26.557Z,9.80
2024-04-18T07:46:33.168Z,9.20
2024-04-18T07:47:34.844Z,9.27
2024-04-18T07:48:36.436Z,9.60
2024-04-18T07:49:41.952Z,8.53
2024-04-18T07:50:46.430Z,9.10
2024-04-18T07:51:56.826Z,9.63
2024-04-18T07:53:04.104Z,7.87
2024-04-18T07:54:11.144Z,8.40
2024-04-18T07:55:12.748Z,8.17
2024-04-18T07:56:14.718Z,7.67
2024-04-18T07:57:17.450Z,7.80
2024-04-18T07:58:19.804Z,7.67
2024-04-18T07:59:26.358Z,8.07
2024-04-18T08:00:29.765Z,7.53
2024-04-18T08:01:33.440Z,7.63
2024-04-18T08:02:37.546Z,8.37
2024-04-18T08:03:44.688Z,7.87
2024-04-18T08:04:58.125Z,7.67
2024-04-18T08:06:04.272Z,7.40
2024-04-18T08:07:10.019Z,7.40
2024-04-18T08:08:15.980Z,7.30
2024-04-18T08:09:21.947Z,7.40
2024-04-18T08:10:33.090Z,7.10
2024-04-18T08:12:04.923Z,7.17
2024-04-18T08:13:05.140Z,7.00
2024-04-18T08:14:11.937Z,7.43
2024-04-18T08:15:20.515Z,7.37
2024-04-18T08:16:25.601Z,7.57
2024-04-18T08:17:27.655Z,8.13
2024-04-18T08:18:29.454Z,8.23
2024-04-18T08:19:31.006Z,7.73
2024-04-18T08:20:32.574Z,7.33
2024-04-18T08:21:34.143Z,7.23
2024-04-18T08:22:35.751Z,7.53
2024-04-18T08:23:37.528Z,7.60
2024-04-18T08:24:39.344Z,7.97
2024-04-18T08:25:40.884Z,7.67
2024-04-18T08:26:42.374Z,7.03
2024-04-18T08:27:43.868Z,7.60
2024-04-18T08:28:45.542Z,7.07
2024-04-18T08:29:47.067Z,7.20
2024-04-18T08:30:48.629Z,7.07
2024-04-18T08:31:50.564Z,8.07
2024-04-18T08:32:52.234Z,7.30
2024-04-18T08:33:58.477Z,6.93
2024-04-18T08:35:08.800Z,7.30
2024-04-18T08:36:10.377Z,7.37
2024-04-18T08:37:11.907Z,7.20
2024-04-18T08:38:13.802Z,7.10
2024-04-18T08:39:17.011Z,7.63
2024-04-18T08:40:18.682Z,7.23
2024-04-18T08:41:20.604Z,7.10
2024-04-18T08:42:27.078Z,6.60
2024-04-18T08:43:28.737Z,7.47
2024-04-18T08:44:30.324Z,6.37
2024-04-18T08:45:35.971Z,6.50
2024-04-18T08:46:38.174Z,7.60
2024-04-18T08:47:40.386Z,6.80
2024-04-18T08:48:43.164Z,6.90
2024-04-18T08:49:45.726Z,6.50
2024-04-18T08:50:47.298Z,6.73
2024-04-18T08:51:49.358Z,6.77
2024-04-18T08:52:52.286Z,6.67
2024-04-18T08:53:54.033Z,6.40
2024-04-18T08:54:55.521Z,6.60
2024-04-18T08:55:58.259Z,6.70
2024-04-18T08:57:01.162Z,6.30
2024-04-18T08:58:03.536Z,6.20
2024-04-18T08:59:06.343Z,6.27
2024-04-18T09:00:08.182Z,6.60
2024-04-18T09:01:10.238Z,6.23
2024-04-18T09:02:12.869Z,5.90
2024-04-18T09:03:14.565Z,6.00
2024-04-18T09:04:16.229Z,5.67
2024-04-18T09:05:17.834Z,5.93
2024-04-18T09:06:19.375Z,5.53
2024-04-18T09:07:20.917Z,5.30
2024-04-18T09:08:22.419Z,5.67
2024-04-18T09:09:24.051Z,5.57
2024-04-18T09:10:25.547Z,5.57
2024-04-18T09:11:27.146Z,5.63
2024-04-18T09:12:28.720Z,4.73
2024-04-18T09:13:30.934Z,5.37
2024-04-18T09:14:33.008Z,5.10
2024-04-18T09:15:34.681Z,5.90
2024-04-18T09:16:36.386Z,7.20
2024-04-18T09:17:38.005Z,6.43
2024-04-18T09:18:39.830Z,6.53
2024-04-18T09:19:41.460Z,6.53
2024-04-18T09:20:43.518Z,5.50
2024-04-18T09:21:45.336Z,5.37
2024-04-18T09:22:46.829Z,6.00
2024-04-18T09:23:48.387Z,5.27
2024-04-18T09:24:49.897Z,5.30
2024-04-18T09:25:54.852Z,4.73
2024-04-18T09:26:56.433Z,5.30
2024-04-18T09:27:58.156Z,5.40
2024-04-18T09:28:59.659Z,5.53
2024-04-18T09:30:01.560Z,5.73
2024-04-18T09:31:06.435Z,5.20
2024-04-18T09:32:08.228Z,5.53
2024-04-18T09:33:10.729Z,5.03
2024-04-18T09:34:15.136Z,5.60
2024-04-18T09:35:17.564Z,5.33
2024-04-18T09:36:19.643Z,4.93
2024-04-18T09:37:23.256Z,5.53
2024-04-18T09:38:25.967Z,5.83
2024-04-18T09:39:28.990Z,5.33
2024-04-18T09:40:33.371Z,4.73
2024-04-18T09:41:37.901Z,5.00
2024-04-18T09:42:47.004Z,5.10
2024-04-18T09:44:08.225Z,5.20
2024-04-18T09:45:12.532Z,4.53
2024-04-18T09:46:15.519Z,4.87
2024-04-18T09:47:17.813Z,4.90
2024-04-18T09:48:19.700Z,4.53
2024-04-18T09:49:22.805Z,5.20
2024-04-18T09:50:26.600Z,5.00
2024-04-18T09:51:28.688Z,5.20
2024-04-18T09:52:30.429Z,5.07
2024-04-18T09:53:32.300Z,4.97
2024-04-18T09:54:34.737Z,5.33
2024-04-18T09:55:36.404Z,5.23
2024-04-18T09:56:38.487Z,5.00
2024-04-18T09:57:41.517Z,4.67
2024-04-18T09:58:43.639Z,5.00
2024-04-18T09:59:46.599Z,4.80
2024-04-18T10:00:48.880Z,4.50
2024-04-18T10:01:50.556Z,4.63
2024-04-18T10:02:54.475Z,4.93
2024-04-18T10:03:56.123Z,4.80
2024-04-18T10:04:57.939Z,5.00
2024-04-18T10:06:02.022Z,4.77
2024-04-18T10:07:04.900Z,4.70
2024-04-18T10:08:07.955Z,4.90
2024-04-18T10:09:10.211Z,5.13
2024-04-18T10:10:12.385Z,4.60
2024-04-18T10:11:14.543Z,4.37
2024-04-18T10:12:16.141Z,4.73
2024-04-18T10:13:19.455Z,4.83
2024-04-18T10:14:22.244Z,4.70
2024-04-18T10:15:25.240Z,5.10
2024-04-18T10:16:26.753Z,5.00
2024-04-18T10:17:32.353Z,5.53
2024-04-18T10:18:36.807Z,4.63
2024-04-18T10:19:42.656Z,5.13
2024-04-18T10:20:46.995Z,5.20
2024-04-18T10:22:11.408Z,4.90
2024-04-18T10:23:22.242Z,5.70
2024-04-18T10:24:24.467Z,5.13
2024-04-18T10:25:26.017Z,5.20
2024-04-18T10:26:31.767Z,5.30
2024-04-18T10:27:42.139Z,5.20
2024-04-18T10:28:44.165Z,5.27
2024-04-18T10:29:57.058Z,4.83
2024-04-18T10:31:03.542Z,5.00
2024-04-18T10:32:05.178Z,4.80
2024-04-18T10:33:07.564Z,5.13
2024-04-18T10:34:10.204Z,5.50
2024-04-18T10:35:12.051Z,4.83
2024-04-18T10:36:14.155Z,5.60
2024-04-18T10:37:22.507Z,5.10
2024-04-18T10:38:24.767Z,5.43
2024-04-18T10:39:32.809Z,5.33
2024-04-18T10:40:34.562Z,5.37
2024-04-18T10:41:45.171Z,5.23
2024-04-18T10:42:47.011Z,4.70
2024-04-18T10:43:49.402Z,4.60
2024-04-18T10:44:50.973Z,4.73
2024-04-18T10:45:54.249Z,4.73
2024-04-18T10:46:55.810Z,5.43
2024-04-18T10:47:58.358Z,5.23
2024-04-18T10:49:00.122Z,5.60
2024-04-18T10:50:02.349Z,6.90
2024-04-18T10:51:04.479Z,6.27
2024-04-18T10:52:09.623Z,6.00
2024-04-18T10:53:11.215Z,5.57
2024-04-18T10:54:12.860Z,6.10
2024-04-18T10:55:14.472Z,6.47
2024-04-18T10:56:16.189Z,7.00
2024-04-18T10:57:18.741Z,5.87
2024-04-18T10:58:20.474Z,5.50
2024-04-18T10:59:22.060Z,4.90
2024-04-18T11:00:23.612Z,4.00
2024-04-18T11:01:25.274Z,3.93
2024-04-18T11:02:28.211Z,4.43
2024-04-18T11:03:31.972Z,4.10
2024-04-18T11:04:33.973Z,4.20
2024-04-18T11:05:36.672Z,3.90
2024-04-18T11:06:54.563Z,4.03
2024-04-18T11:07:56.102Z,4.30
2024-04-18T11:09:00.421Z,4.37
2024-04-18T11:10:02.497Z,4.40
2024-04-18T11:11:04.839Z,4.80
2024-04-18T11:12:07.371Z,4.77
2024-04-18T11:13:11.156Z,5.30
2024-04-18T11:14:14.908Z,5.00
2024-04-18T11:15:17.259Z,5.97
2024-04-18T11:16:19.069Z,6.23
2024-04-18T11:17:20.744Z,6.20
2024-04-18T11:18:23.401Z,6.50
2024-04-18T11:19:26.805Z,6.10
2024-04-18T11:20:30.687Z,6.20
2024-04-18T11:21:33.101Z,6.47
2024-04-18T11:22:34.919Z,5.53
2024-04-18T11:23:44.213Z,4.80
2024-04-18T11:24:49.224Z,5.00
2024-04-18T11:25:50.766Z,4.53
2024-04-18T11:26:52.732Z,4.80
2024-04-18T11:27:54.318Z,5.00
2024-04-18T11:28:56.908Z,4.87
2024-04-18T11:29:58.454Z,4.10
2024-04-18T11:31:01.316Z,4.83
2024-04-18T11:32:06.859Z,5.27
2024-04-18T11:33:12.469Z,4.87
2024-04-18T11:34:14.308Z,4.60
2024-04-18T11:35:17.507Z,5.60
2024-04-18T11:36:20.188Z,5.40
2024-04-18T11:37:21.762Z,5.50
2024-04-18T11:38:25.143Z,6.17
2024-04-18T11:39:29.598Z,5.03
2024-04-18T11:40:31.274Z,5.30
2024-04-18T11:41:33.225Z,5.97
2024-04-18T11:42:34.829Z,5.87
2024-04-18T11:43:36.530Z,6.20
2024-04-18T11:44:37.988Z,6.50
2024-04-18T11:45:40.117Z,5.50
2024-04-18T11:46:41.683Z,5.63
2024-04-18T11:47:43.288Z,5.60
2024-04-18T11:48:45.042Z,5.90
2024-04-18T11:49:46.586Z,5.73
2024-04-18T11:50:51.057Z,5.73
2024-04-18T11:51:52.582Z,6.30
2024-04-18T11:52:54.418Z,6.40
2024-04-18T11:54:04.734Z,6.13
2024-04-18T11:55:09.131Z,6.40
2024-04-18T11:56:13.377Z,5.77
2024-04-18T11:57:14.853Z,5.50
2024-04-18T11:58:16.432Z,5.83
2024-04-18T11:59:18.171Z,6.00
2024-04-18T12:00:19.694Z,5.93
2024-04-18T12:01:40.052Z,5.60
2024-04-18T12:02:53.599Z,5.37
2024-04-18T12:03:58.062Z,5.07
2024-04-18T12:05:05.624Z,4.53
2024-04-18T12:06:22.838Z,4.63
2024-04-18T12:07:25.742Z,4.20
2024-04-18T12:08:27.279Z,4.30
2024-04-18T12:09:29.120Z,4.50
2024-04-18T12:10:33.484Z,5.20
2024-04-18T12:11:37.585Z,5.17
2024-04-18T12:12:45.499Z,5.80
2024-04-18T12:13:55.588Z,5.70
2024-04-18T12:15:00.906Z,5.50
2024-04-18T12:16:02.622Z,6.00
2024-04-18T12:17:05.187Z,5.40
2024-04-18T12:18:15.877Z,5.33
2024-04-18T12:19:23.518Z,4.77
2024-04-18T12:20:25.362Z,4.20
2024-04-18T12:21:26.905Z,4.37
2024-04-18T12:22:28.518Z,4.37
2024-04-18T12:23:46.982Z,4.57
2024-04-18T12:24:48.612Z,4.93
2024-04-18T12:25:51.841Z,5.37
2024-04-18T12:26:53.539Z,5.10
2024-04-18T12:27:55.104Z,4.77
2024-04-18T12:29:05.265Z,4.70
2024-04-18T12:30:29.947Z,4.80
2024-04-18T12:31:50.552Z,4.33
2024-04-18T12:32:52.072Z,5.13
2024-04-18T12:33:59.659Z,4.47
2024-04-18T12:35:01.157Z,4.50
2024-04-18T12:36:02.859Z,4.57
2024-04-18T12:37:04.614Z,4.57
2024-04-18T12:38:09.822Z,4.13
2024-04-18T12:39:17.515Z,4.47
2024-04-18T12:40:19.067Z,4.20
2024-04-18T12:41:40.547Z,4.67
2024-04-18T12:42:42.066Z,4.53
2024-04-18T12:43:45.964Z,4.50
2024-04-18T12:45:06.306Z,4.57
2024-04-18T12:46:15.080Z,4.60
2024-04-18T12:47:26.268Z,4.87
2024-04-18T12:48:27.934Z,4.20
2024-04-18T12:49:30.111Z,4.27
2024-04-18T12:50:31.738Z,5.00
2024-04-18T12:51:35.228Z,4.80
2024-04-18T12:52:36.886Z,4.70
2024-04-18T12:53:39.019Z,4.93
2024-04-18T12:54:41.037Z,4.50
2024-04-18T12:55:55.869Z,4.77
2024-04-18T12:56:57.692Z,4.57
2024-04-18T12:57:59.338Z,4.13
2024-04-18T12:59:10.167Z,4.70
2024-04-18T13:00:19.683Z,4.50
2024-04-18T13:01:33.314Z,4.57
2024-04-18T13:02:53.336Z,4.60
2024-04-18T13:04:21.642Z,4.70
2024-04-18T13:05:24.288Z,4.33
2024-04-18T13:06:38.680Z,4.67
2024-04-18T13:07:59.074Z,4.03
2024-04-18T13:09:00.638Z,4.47
2024-04-18T13:10:18.807Z,3.90
2024-04-18T13:11:20.956Z,3.80
2024-04-18T13:12:40.018Z,3.73
2024-04-18T13:14:04.361Z,2.90
2024-04-18T13:15:06.040Z,3.23
2024-04-18T13:16:07.757Z,3.90
2024-04-18T13:17:09.339Z,3.77
2024-04-18T13:18:22.834Z,4.03
2024-04-18T13:19:33.661Z,4.13
2024-04-18T13:20:44.234Z,4.37
2024-04-18T13:21:45.740Z,4.50
2024-04-18T13:22:47.285Z,4.10
2024-04-18T13:23:49.097Z,3.90
2024-04-18T13:24:52.751Z,3.00
2024-04-18T13:26:01.159Z,2.90
2024-04-18T13:27:02.773Z,3.00
2024-04-18T13:28:24.410Z,3.10
2024-04-18T13:29:44.296Z,3.20
2024-04-18T13:31:04.546Z,3.43
2024-04-18T13:32:21.013Z,3.80
2024-04-18T13:33:22.903Z,3.77
2024-04-18T13:34:24.841Z,4.27
2024-04-18T13:35:27.405Z,3.90
2024-04-18T13:36:29.366Z,3.90
2024-04-18T13:37:30.977Z,4.03
2024-04-18T13:38:51.093Z,4.47
2024-04-18T13:40:06.462Z,4.37
2024-04-18T13:41:08.168Z,4.50
2024-04-18T13:42:15.361Z,5.53
2024-04-18T13:43:26.160Z,4.67
2024-04-18T13:44:39.663Z,4.90
2024-04-18T13:45:59.861Z,4.50
2024-04-18T13:47:03.460Z,4.30
2024-04-18T13:48:14.189Z,4.70
2024-04-18T13:49:18.369Z,4.27
2024-04-18T13:50:31.056Z,4.23
2024-04-18T13:51:32.621Z,4.57
2024-04-18T13:52:34.202Z,4.43
2024-04-18T13:53:38.405Z,4.30
2024-04-18T13:54:55.401Z,4.17
2024-04-18T13:56:05.825Z,4.23
2024-04-18T13:57:07.458Z,4.20
2024-04-18T13:58:15.456Z,3.93
2024-04-18T13:59:31.878Z,4.07
2024-04-18T14:00:33.519Z,4.13
2024-04-18T14:01:53.966Z,4.27
2024-04-18T14:03:13.827Z,3.87
2024-04-18T14:04:35.259Z,4.07
2024-04-18T14:05:54.415Z,3.80
2024-04-18T14:07:10.485Z,3.77
2024-04-18T14:08:12.242Z,4.00
2024-04-18T14:09:42.203Z,3.53
2024-04-18T14:10:46.517Z,3.40
2024-04-18T14:12:00.013Z,3.60
2024-04-18T14:13:13.433Z,3.30
2024-04-18T14:14:25.793Z,3.50
2024-04-18T14:16:04.051Z,3.90
2024-04-18T14:17:43.154Z,3.90
2024-04-18T14:18:51.084Z,3.50
2024-04-18T14:20:09.709Z,3.27
2024-04-18T14:21:23.842Z,3.27
2024-04-18T14:22:25.495Z,3.17
2024-04-18T14:23:27.001Z,3.67
2024-04-18T14:24:28.593Z,3.03
2024-04-18T14:25:33.100Z,3.00
2024-04-18T14:26:49.996Z,3.30
2024-04-18T14:28:01.099Z,3.30
2024-04-18T14:29:12.861Z,3.13
2024-04-18T14:30:31.688Z,2.40
2024-04-18T14:31:44.521Z,2.33
2024-04-18T14:33:03.895Z,2.50
2024-04-18T14:34:05.677Z,2.33
2024-04-18T14:35:07.320Z,2.80
2024-04-18T14:36:09.555Z,2.67
2024-04-18T14:37:11.400Z,2.20